createdAt,value
2019-05-18T00:01:54.541Z,99997.44
2019-05-18T00:04:19.042Z,100000.64
2019-05-18T00:06:43.839Z,99992.97
2019-05-18T00:09:08.553Z,99989.05
2019-05-18T00:11:33.479Z,99992.65
2019-05-18T00:13:58.095Z,99989.30
2019-05-18T00:16:22.672Z,99956.00
2019-05-18T00:18:47.285Z,99996.05
2019-05-18T00:21:11.731Z,99993.96
2019-05-18T00:23:36.275Z,99992.87
2019-05-18T00:26:01.102Z,99985.56
2019-05-18T00:28:25.726Z,99987.55
2019-05-18T00:30:50.253Z,99984.72
2019-05-18T00:33:14.723Z,99979.30
2019-05-18T00:35:39.167Z,99981.64
2019-05-18T00:38:03.633Z,99985.78
2019-05-18T00:40:28.104Z,99952.67
2019-05-18T00:42:52.547Z,99987.48
2019-05-18T00:45:17.248Z,99977.19
2019-05-18T00:47:42.463Z,99983.41
2019-05-18T00:50:07.772Z,99978.06
2019-05-18T00:52:32.230Z,99986.02
2019-05-18T00:54:56.784Z,99986.30
2019-05-18T00:57:21.241Z,99981.28
2019-05-18T00:59:45.857Z,99983.02
2019-05-18T01:02:10.302Z,99983.02
2019-05-18T01:04:34.779Z,99981.78
2019-05-18T01:06:59.283Z,99980.33
2019-05-18T01:09:23.786Z,99980.66
2019-05-18T01:11:48.300Z,99985.82
2019-05-18T01:14:12.773Z,99981.21
2019-05-18T01:16:37.362Z,99978.98
2019-05-18T01:19:01.800Z,99973.78
2019-05-18T01:21:26.477Z,99973.18
2019-05-18T01:23:50.919Z,99969.30
2019-05-18T01:26:15.468Z,99972.80
2019-05-18T01:28:39.922Z,99974.06
2019-05-18T01:31:04.558Z,99966.73
2019-05-18T01:33:29.041Z,99965.63
2019-05-18T01:35:53.622Z,99969.53
2019-05-18T01:38:18.141Z,99969.38
2019-05-18T01:40:42.695Z,99963.00
2019-05-18T01:43:07.291Z,99964.33
2019-05-18T01:45:31.841Z,99963.55
2019-05-18T01:47:56.376Z,99962.87
2019-05-18T01:50:20.873Z,99959.64
2019-05-18T01:52:45.420Z,99957.52
2019-05-18T01:55:10.639Z,99962.26
2019-05-18T01:57:35.197Z,99960.16
2019-05-18T01:59:59.645Z,99966.19
2019-05-18T02:02:24.111Z,99961.37
2019-05-18T02:04:48.570Z,99964.30
2019-05-18T02:07:13.125Z,99957.95
2019-05-18T02:09:37.651Z,99967.05
2019-05-18T02:12:02.206Z,99966.72
2019-05-18T02:14:26.741Z,99970.02
2019-05-18T02:16:51.233Z,99971.42
2019-05-18T02:19:15.763Z,99971.02
2019-05-18T02:21:40.317Z,99975.77
2019-05-18T02:24:04.918Z,99972.26
2019-05-18T02:26:29.449Z,99976.23
2019-05-18T02:28:54.081Z,99974.92
2019-05-18T02:31:18.699Z,99971.92
2019-05-18T02:33:43.318Z,99972.26
2019-05-18T02:36:07.922Z,99971.84
2019-05-18T02:38:32.457Z,99969.05
2019-05-18T02:40:56.944Z,99966.47
2019-05-18T02:43:21.485Z,99965.07
2019-05-18T02:45:46.089Z,99962.31
2019-05-18T02:48:10.696Z,99967.42
2019-05-18T02:50:35.219Z,99961.83
2019-05-18T02:52:59.768Z,99962.95
2019-05-18T02:55:24.234Z,99955.84
2019-05-18T02:57:48.780Z,99947.91
2019-05-18T03:00:13.500Z,99949.59
2019-05-18T03:02:38.035Z,99951.36
2019-05-18T03:05:02.661Z,99952.89
2019-05-18T03:07:27.115Z,99951.53
2019-05-18T03:09:51.591Z,99953.86
2019-05-18T03:12:16.161Z,99947.37
2019-05-18T03:14:40.605Z,99954.69
2019-05-18T03:17:05.172Z,99952.06
2019-05-18T03:19:29.697Z,99955.59
2019-05-18T03:21:54.164Z,99960.44
2019-05-18T03:24:18.617Z,99953.33
2019-05-18T03:26:43.077Z,99955.50
2019-05-18T03:29:07.673Z,99952.42
2019-05-18T03:31:32.128Z,99951.48
2019-05-18T03:33:56.670Z,99951.67
2019-05-18T03:36:21.387Z,99951.69
2019-05-18T03:38:45.867Z,99949.34
2019-05-18T03:41:10.382Z,99950.09
2019-05-18T03:43:34.954Z,99947.50
2019-05-18T03:45:59.484Z,99947.50
2019-05-18T03:48:24.453Z,99947.36
2019-05-18T03:50:49.774Z,99952.63
2019-05-18T03:53:18.002Z,99953.27
2019-05-18T03:55:40.635Z,99950.28
2019-05-18T03:58:05.212Z,99953.56
2019-05-18T04:00:29.668Z,99952.66
2019-05-18T04:03:05.012Z,99948.92
2019-05-18T04:05:29.591Z,99950.53
2019-05-18T04:07:54.176Z,99950.13
2019-05-18T04:10:26.741Z,99950.94
2019-05-18T04:12:51.208Z,99950.25
2019-05-18T04:15:15.733Z,99951.35
2019-05-18T04:17:40.227Z,99943.47
2019-05-18T04:20:08.538Z,99948.89
2019-05-18T04:22:33.024Z,99952.59
2019-05-18T04:24:57.542Z,99959.12
2019-05-18T04:27:22.013Z,99955.54
2019-05-18T04:29:46.556Z,99950.83
2019-05-18T04:32:11.071Z,99954.23
2019-05-18T04:34:35.587Z,99951.56
2019-05-18T04:37:00.034Z,99948.56
2019-05-18T04:39:24.521Z,99952.30
2019-05-18T04:41:48.975Z,99903.99
2019-05-18T04:44:13.515Z,99960.03
2019-05-18T04:46:38.113Z,99952.22
2019-05-18T04:49:02.614Z,99948.42
2019-05-18T04:51:27.146Z,99956.75
2019-05-18T04:53:51.656Z,99954.23
2019-05-18T04:56:16.077Z,99962.56
2019-05-18T04:58:40.561Z,99962.72
2019-05-18T05:01:05.177Z,99960.34
2019-05-18T05:03:29.665Z,99963.37
2019-05-18T05:05:54.144Z,99965.21
2019-05-18T05:08:18.611Z,99966.73
2019-05-18T05:10:43.067Z,99961.08
2019-05-18T05:13:07.608Z,99961.86
2019-05-18T05:15:32.169Z,99891.42
2019-05-18T05:17:56.691Z,99962.72
2019-05-18T05:20:21.154Z,99966.19
2019-05-18T05:22:47.514Z,99960.37
2019-05-18T05:25:12.147Z,99962.54
2019-05-18T05:27:36.606Z,99967.98
2019-05-18T05:30:01.095Z,99961.81
2019-05-18T05:32:25.665Z,99957.07
2019-05-18T05:34:50.206Z,99951.11
2019-05-18T05:37:14.728Z,99957.42
2019-05-18T05:39:39.207Z,99911.19
2019-05-18T05:42:03.664Z,99949.27
2019-05-18T05:44:28.133Z,99953.02
2019-05-18T05:46:52.594Z,99951.38
2019-05-18T05:49:17.074Z,99952.34
2019-05-18T05:51:41.598Z,99950.19
2019-05-18T05:54:06.073Z,99952.70
2019-05-18T05:56:30.520Z,99954.27
2019-05-18T05:58:55.053Z,99960.20
2019-05-18T06:01:19.493Z,99959.36
2019-05-18T06:03:44.834Z,99953.23
2019-05-18T06:06:09.274Z,99955.04
2019-05-18T06:08:34.250Z,99953.66
2019-05-18T06:10:58.758Z,99951.56
2019-05-18T06:13:23.580Z,99953.80
2019-05-18T06:15:48.140Z,99951.87
2019-05-18T06:18:12.602Z,99943.74
2019-05-18T06:20:50.533Z,99951.56
2019-05-18T06:23:03.378Z,99945.27
2019-05-18T06:25:27.887Z,99951.04
2019-05-18T06:27:52.344Z,99949.20
2019-05-18T06:30:17.724Z,99946.28
2019-05-18T06:32:42.246Z,99950.34
2019-05-18T06:35:06.955Z,99950.97
2019-05-18T06:37:31.397Z,99947.31
2019-05-18T06:39:55.987Z,99957.47
2019-05-18T06:42:20.436Z,99960.00
2019-05-18T06:44:45.006Z,99962.95
2019-05-18T06:47:09.604Z,99957.42
2019-05-18T06:49:34.069Z,99961.13
2019-05-18T06:51:59.366Z,99959.47
2019-05-18T06:54:23.990Z,99961.05
2019-05-18T06:56:48.682Z,99958.52
2019-05-18T06:59:16.466Z,99965.77
2019-05-18T07:01:41.045Z,99966.66
2019-05-18T07:04:05.600Z,99962.73
2019-05-18T07:06:30.071Z,99969.66
2019-05-18T07:08:54.529Z,99965.45
2019-05-18T07:11:19.073Z,99964.31
2019-05-18T07:13:43.535Z,99964.17
2019-05-18T07:16:08.155Z,99961.92
2019-05-18T07:18:32.611Z,99959.95
2019-05-18T07:21:00.016Z,99962.72
2019-05-18T07:23:24.559Z,99959.12
2019-05-18T07:25:49.019Z,99955.87
2019-05-18T07:28:13.468Z,99954.05
2019-05-18T07:30:38.158Z,99955.92
2019-05-18T07:33:02.612Z,99951.69
2019-05-18T07:35:27.186Z,99956.09
2019-05-18T07:37:51.712Z,99956.45
2019-05-18T07:40:16.289Z,99952.14
2019-05-18T07:42:40.888Z,99955.52
2019-05-18T07:45:08.407Z,99953.27
2019-05-18T07:47:32.928Z,99952.87
2019-05-18T07:49:57.395Z,99955.36
2019-05-18T07:52:21.901Z,99952.81
2019-05-18T07:54:46.417Z,99954.69
2019-05-18T07:57:10.888Z,99954.63
2019-05-18T07:59:35.352Z,99960.61
2019-05-18T08:01:59.828Z,99957.52
2019-05-18T08:04:24.421Z,99959.15
2019-05-18T08:06:48.977Z,99956.00
2019-05-18T08:09:13.426Z,99959.41
2019-05-18T08:11:37.914Z,99959.65
2019-05-18T08:14:02.401Z,99955.00
2019-05-18T08:16:26.855Z,99959.27
2019-05-18T08:18:51.387Z,99959.07
2019-05-18T08:21:17.085Z,99951.30
2019-05-18T08:23:42.497Z,99959.95
2019-05-18T08:26:06.978Z,99947.98
2019-05-18T08:28:31.438Z,99950.55
2019-05-18T08:30:55.940Z,99950.41
2019-05-18T08:33:20.381Z,99954.55
2019-05-18T08:35:44.841Z,99953.16
2019-05-18T08:38:09.293Z,99920.02
2019-05-18T08:40:33.780Z,99953.30
2019-05-18T08:42:58.363Z,99950.76
2019-05-18T08:45:22.949Z,99957.13
2019-05-18T08:47:47.492Z,99953.97
2019-05-18T08:50:13.259Z,99952.34
2019-05-18T08:52:37.852Z,99947.84
2019-05-18T08:55:02.476Z,99949.25
2019-05-18T08:57:27.358Z,99957.95
2019-05-18T08:59:51.902Z,99948.16
2019-05-18T09:02:16.386Z,99957.28
2019-05-18T09:04:40.822Z,99950.69
2019-05-18T09:07:05.472Z,99948.09
2019-05-18T09:09:30.024Z,99952.28
2019-05-18T09:11:54.569Z,99950.59
2019-05-18T09:14:19.083Z,99946.86
2019-05-18T09:16:43.554Z,99950.16
2019-05-18T09:19:07.990Z,99954.91
2019-05-18T09:21:32.454Z,99950.63
2019-05-18T09:23:56.904Z,99945.77
2019-05-18T09:26:21.374Z,99947.24
2019-05-18T09:28:45.839Z,99950.47
2019-05-18T09:31:10.368Z,99946.79
2019-05-18T09:33:34.887Z,99949.00
2019-05-18T09:35:59.364Z,99940.11
2019-05-18T09:38:23.806Z,99940.92
2019-05-18T09:40:48.243Z,99933.09
2019-05-18T09:43:12.727Z,99936.11
2019-05-18T09:45:37.194Z,99929.95
2019-05-18T09:48:01.653Z,99926.56
2019-05-18T09:50:26.135Z,99927.23
2019-05-18T09:52:50.650Z,99926.42
2019-05-18T09:55:15.880Z,99927.23
2019-05-18T09:57:40.341Z,99925.84
2019-05-18T10:00:10.528Z,99925.49
2019-05-18T10:02:35.049Z,99919.08
2019-05-18T10:04:59.497Z,99919.55
2019-05-18T10:07:24.020Z,99908.55
2019-05-18T10:09:48.554Z,99915.91
2019-05-18T10:12:13.016Z,99915.17
2019-05-18T10:14:37.523Z,99915.27
2019-05-18T10:17:02.315Z,99917.91
2019-05-18T10:19:26.784Z,99913.81
2019-05-18T10:21:51.325Z,99913.72
2019-05-18T10:24:15.918Z,99910.60
2019-05-18T10:26:40.355Z,99905.81
2019-05-18T10:29:05.000Z,99903.88
2019-05-18T10:31:29.512Z,99908.00
2019-05-18T10:33:53.955Z,99871.39
2019-05-18T10:36:18.388Z,99910.52
2019-05-18T10:38:42.872Z,99906.52
2019-05-18T10:41:07.456Z,99889.47
2019-05-18T10:43:31.959Z,99896.91
2019-05-18T10:45:56.452Z,99896.91
2019-05-18T10:48:20.926Z,99896.08
2019-05-18T10:50:45.431Z,99890.94
2019-05-18T10:53:09.969Z,99890.94
2019-05-18T10:55:34.685Z,99883.51
2019-05-18T10:57:59.253Z,99883.51
2019-05-18T11:00:23.830Z,99873.66
2019-05-18T11:02:48.438Z,99891.56
2019-05-18T11:05:13.638Z,99882.64
2019-05-18T11:07:38.131Z,99881.94
2019-05-18T11:10:02.662Z,99881.94
2019-05-18T11:12:27.114Z,99867.88
2019-05-18T11:14:51.745Z,99880.84
2019-05-18T11:17:16.317Z,99870.07
2019-05-18T11:19:40.845Z,99872.55
2019-05-18T11:22:05.435Z,99872.55
2019-05-18T11:24:29.889Z,99865.59
2019-05-18T11:26:54.321Z,99868.23
2019-05-18T11:29:22.750Z,99866.41
2019-05-18T11:31:45.012Z,99864.09
2019-05-18T11:34:09.535Z,99861.05
2019-05-18T11:36:33.976Z,99855.53
2019-05-18T11:38:58.591Z,99856.37
2019-05-18T11:41:23.151Z,99858.41
2019-05-18T11:43:47.626Z,99855.45
2019-05-18T11:46:12.071Z,99857.75
2019-05-18T11:48:36.622Z,99855.98
2019-05-18T11:51:01.147Z,99863.41
2019-05-18T11:53:25.706Z,99859.85
2019-05-18T11:55:50.135Z,99860.69
2019-05-18T11:58:14.715Z,99860.98
2019-05-18T12:00:39.345Z,99860.45
2019-05-18T12:03:03.946Z,99854.85
2019-05-18T12:05:28.473Z,99862.52
2019-05-18T12:07:52.996Z,99854.28
2019-05-18T12:10:18.532Z,99853.05
2019-05-18T12:12:43.232Z,99861.69
2019-05-18T12:15:09.359Z,99855.22
2019-05-18T12:17:33.872Z,99858.55
2019-05-18T12:19:58.334Z,99858.16
2019-05-18T12:22:22.748Z,99862.00
2019-05-18T12:24:47.287Z,99856.08
2019-05-18T12:27:11.733Z,99851.38
2019-05-18T12:29:36.230Z,99845.23
2019-05-18T12:32:00.670Z,99860.04
2019-05-18T12:34:26.506Z,99853.41
2019-05-18T12:36:50.937Z,99860.30
2019-05-18T12:39:15.458Z,99850.02
2019-05-18T12:41:39.970Z,99852.97
2019-05-18T12:44:04.548Z,99850.11
2019-05-18T12:46:29.139Z,99853.20
2019-05-18T12:48:53.927Z,99851.44
2019-05-18T12:51:18.397Z,99843.30
2019-05-18T12:53:42.892Z,99845.72
2019-05-18T12:56:07.454Z,99844.88
2019-05-18T12:58:31.896Z,99842.02
2019-05-18T13:00:56.373Z,99846.23
2019-05-18T13:03:20.871Z,99843.88
2019-05-18T13:05:45.344Z,99847.09
2019-05-18T13:08:09.845Z,99845.00
2019-05-18T13:10:34.333Z,99846.38
2019-05-18T13:12:58.842Z,99846.20
2019-05-18T13:15:24.342Z,99848.39
2019-05-18T13:17:48.951Z,99839.64
2019-05-18T13:20:14.360Z,99840.95
2019-05-18T13:22:38.942Z,99839.38
2019-05-18T13:25:04.755Z,99846.16
2019-05-18T13:27:38.728Z,99838.25
2019-05-18T13:29:55.370Z,99839.62
2019-05-18T13:32:19.944Z,99841.16
2019-05-18T13:34:44.456Z,99840.86
2019-05-18T13:37:08.919Z,99840.31
2019-05-18T13:39:33.484Z,99829.38
2019-05-18T13:41:57.963Z,99827.36
2019-05-18T13:44:22.415Z,99823.08
2019-05-18T13:46:46.888Z,99824.94
2019-05-18T13:49:11.329Z,99823.01
2019-05-18T13:51:35.814Z,99825.56
2019-05-18T13:54:00.270Z,99820.98
2019-05-18T13:56:24.787Z,99821.92
2019-05-18T13:58:49.242Z,99819.55
2019-05-18T14:01:13.750Z,99810.81
2019-05-18T14:03:38.263Z,99808.24
2019-05-18T14:06:02.734Z,99812.22
2019-05-18T14:08:27.215Z,99807.67
2019-05-18T14:10:51.684Z,99804.33
2019-05-18T14:13:16.138Z,99808.95
2019-05-18T14:15:40.673Z,99782.69
2019-05-18T14:18:05.221Z,99824.73
2019-05-18T14:20:29.715Z,99809.70
2019-05-18T14:22:54.181Z,99813.12
2019-05-18T14:25:20.307Z,99813.38
2019-05-18T14:27:44.988Z,99809.29
2019-05-18T14:30:10.178Z,99806.38
2019-05-18T14:32:34.714Z,99804.67
2019-05-18T14:34:59.289Z,99806.27
2019-05-18T14:37:23.749Z,99801.31
2019-05-18T14:39:48.223Z,99806.61
2019-05-18T14:42:12.767Z,99803.55
2019-05-18T14:44:37.402Z,99806.28
2019-05-18T14:47:01.869Z,99795.63
2019-05-18T14:49:26.388Z,99798.05
2019-05-18T14:51:50.867Z,99798.16
2019-05-18T14:54:15.334Z,99801.07
2019-05-18T14:56:39.760Z,99799.25
2019-05-18T14:59:04.292Z,99763.11
2019-05-18T15:01:28.744Z,99791.38
2019-05-18T15:03:53.276Z,99799.39
2019-05-18T15:06:17.741Z,99787.22
2019-05-18T15:08:42.209Z,99799.28
2019-05-18T15:11:06.786Z,99790.70
2019-05-18T15:13:31.317Z,99785.95
2019-05-18T15:15:55.763Z,99788.56
2019-05-18T15:18:20.225Z,99796.56
2019-05-18T15:20:44.662Z,99794.56
2019-05-18T15:23:09.257Z,99796.48
2019-05-18T15:25:49.331Z,99798.06
2019-05-18T15:27:59.839Z,99794.98
2019-05-18T15:30:24.417Z,99765.59
2019-05-18T15:32:49.031Z,99793.00
2019-05-18T15:35:13.865Z,99793.14
2019-05-18T15:37:39.277Z,99789.44
2019-05-18T15:40:04.294Z,99790.07
2019-05-18T15:42:28.834Z,99781.44
2019-05-18T15:44:53.303Z,99787.78
2019-05-18T15:47:17.808Z,99783.22
2019-05-18T15:49:42.337Z,99782.48
2019-05-18T15:52:06.791Z,99784.64
2019-05-18T15:54:31.256Z,99785.98
2019-05-18T15:56:55.687Z,99783.42
2019-05-18T15:59:20.175Z,99783.16
2019-05-18T16:01:44.680Z,99744.47
2019-05-18T16:04:09.233Z,99774.13
2019-05-18T16:06:33.669Z,99775.56
2019-05-18T16:08:58.305Z,99767.34
2019-05-18T16:11:22.746Z,99774.58
2019-05-18T16:13:49.157Z,99773.18
2019-05-18T16:16:13.580Z,99773.19
2019-05-18T16:18:38.049Z,99779.44
2019-05-18T16:21:02.595Z,99769.48
2019-05-18T16:23:27.087Z,99776.55
2019-05-18T16:25:51.567Z,99771.48
2019-05-18T16:28:16.117Z,99781.36
2019-05-18T16:30:40.613Z,99778.89
2019-05-18T16:33:05.204Z,99774.19
2019-05-18T16:35:29.661Z,99766.73
2019-05-18T16:37:54.192Z,99769.86
2019-05-18T16:40:18.858Z,99766.48
2019-05-18T16:42:46.355Z,99767.97
2019-05-18T16:45:10.225Z,99769.66
2019-05-18T16:47:34.660Z,99768.19
2019-05-18T16:49:59.121Z,99767.06
2019-05-18T16:52:23.560Z,99763.90
2019-05-18T16:54:48.027Z,99764.97
2019-05-18T16:57:12.454Z,99757.77
2019-05-18T16:59:36.941Z,99759.11
2019-05-18T17:02:01.436Z,99701.29
2019-05-18T17:04:25.899Z,99756.43
2019-05-18T17:06:50.492Z,99755.80
2019-05-18T17:09:14.952Z,99758.52
2019-05-18T17:11:39.404Z,99762.58
2019-05-18T17:14:04.111Z,99756.77
2019-05-18T17:16:28.630Z,99758.80
2019-05-18T17:18:53.118Z,99757.92
2019-05-18T17:21:17.646Z,99751.59
2019-05-18T17:23:42.200Z,99754.28
2019-05-18T17:26:06.741Z,99752.85
2019-05-18T17:28:31.231Z,99753.12
2019-05-18T17:30:55.741Z,99725.89
2019-05-18T17:33:20.315Z,99752.92
2019-05-18T17:35:59.446Z,99757.34
2019-05-18T17:38:10.988Z,99750.17
2019-05-18T17:40:35.608Z,99757.40
2019-05-18T17:43:00.110Z,99759.52
2019-05-18T17:45:24.719Z,99758.09
2019-05-18T17:47:49.287Z,99756.97
2019-05-18T17:50:14.707Z,99759.81
2019-05-18T17:52:39.203Z,99760.53
2019-05-18T17:55:05.011Z,99765.19
2019-05-18T17:57:29.617Z,99765.42
2019-05-18T17:59:54.074Z,99760.78
2019-05-18T18:02:18.523Z,99764.59
2019-05-18T18:04:42.989Z,99764.23
2019-05-18T18:07:07.430Z,99769.28
2019-05-18T18:09:31.917Z,99767.37
2019-05-18T18:11:56.364Z,99761.11
2019-05-18T18:14:20.965Z,99766.36
2019-05-18T18:16:45.599Z,99775.54
2019-05-18T18:19:10.050Z,99775.54
2019-05-18T18:21:34.607Z,99773.98
2019-05-18T18:23:59.123Z,99778.40
2019-05-18T18:26:23.582Z,99782.17
2019-05-18T18:28:48.045Z,99775.73
2019-05-18T18:31:12.500Z,99776.97
2019-05-18T18:33:37.001Z,99765.67
2019-05-18T18:36:01.474Z,99765.67
2019-05-18T18:38:25.987Z,99747.41
2019-05-18T18:40:50.455Z,99777.27
2019-05-18T18:43:15.747Z,99777.63
2019-05-18T18:45:40.285Z,99771.83
2019-05-18T18:48:04.894Z,99773.06
2019-05-18T18:50:29.432Z,99772.32
2019-05-18T18:52:53.881Z,99777.31
2019-05-18T18:55:18.418Z,99781.38
2019-05-18T18:57:42.926Z,99780.19
2019-05-18T19:00:08.228Z,99787.37
2019-05-18T19:02:32.739Z,99782.58
2019-05-18T19:04:57.314Z,99782.47
2019-05-18T19:07:21.825Z,99776.47
2019-05-18T19:09:46.268Z,99783.22
2019-05-18T19:12:10.787Z,99785.11
2019-05-18T19:14:35.254Z,99785.11
2019-05-18T19:16:59.829Z,99785.66
2019-05-18T19:19:24.301Z,99785.83
2019-05-18T19:21:48.846Z,99790.86
2019-05-18T19:24:13.294Z,99793.84
2019-05-18T19:26:37.870Z,99792.88
2019-05-18T19:29:02.485Z,99796.70
2019-05-18T19:31:27.004Z,99798.77
2019-05-18T19:33:51.508Z,99806.53
2019-05-18T19:36:15.978Z,99814.50
2019-05-18T19:38:40.415Z,99818.16
2019-05-18T19:41:05.003Z,99816.59
2019-05-18T19:43:29.508Z,99817.02
2019-05-18T19:45:54.059Z,99821.73
2019-05-18T19:48:18.802Z,99817.91
2019-05-18T19:50:43.612Z,99782.12
2019-05-18T19:53:08.250Z,99822.32
2019-05-18T19:55:32.740Z,99825.74
2019-05-18T19:58:08.494Z,99820.22
2019-05-18T20:00:25.734Z,99825.16
2019-05-18T20:02:58.103Z,99831.63
2019-05-18T20:05:22.566Z,99828.21
2019-05-18T20:07:47.034Z,99831.89
2019-05-18T20:10:13.543Z,99833.00
2019-05-18T20:12:38.057Z,99831.55
2019-05-18T20:15:02.519Z,99835.12
2019-05-18T20:17:26.976Z,99830.22
2019-05-18T20:19:51.551Z,99833.11
2019-05-18T20:22:16.206Z,99831.23
2019-05-18T20:24:40.631Z,99828.81
2019-05-18T20:27:05.098Z,99837.69
2019-05-18T20:29:29.538Z,99833.63
2019-05-18T20:31:54.075Z,99831.11
2019-05-18T20:34:18.690Z,99832.05
2019-05-18T20:36:43.143Z,99832.92
2019-05-18T20:39:07.845Z,99832.27
2019-05-18T20:41:32.297Z,99833.12
2019-05-18T20:43:56.761Z,99836.55
2019-05-18T20:46:21.295Z,99830.25
2019-05-18T20:48:45.741Z,99832.05
2019-05-18T20:51:10.349Z,99837.77
2019-05-18T20:53:34.787Z,99825.23
2019-05-18T20:55:59.333Z,99831.85
2019-05-18T20:58:38.272Z,99829.84
2019-05-18T21:00:49.991Z,99829.52
2019-05-18T21:03:14.493Z,99834.94
2019-05-18T21:05:38.959Z,99830.59
2019-05-18T21:08:03.428Z,99834.59
2019-05-18T21:10:27.947Z,99835.30
2019-05-18T21:12:52.415Z,99838.45
2019-05-18T21:15:17.248Z,99836.85
2019-05-18T21:17:41.705Z,99838.01
2019-05-18T21:20:06.589Z,99835.34
2019-05-18T21:22:31.045Z,99838.92
2019-05-18T21:24:55.468Z,99792.77
2019-05-18T21:27:20.054Z,99834.69
2019-05-18T21:29:44.488Z,99830.83
2019-05-18T21:32:08.962Z,99834.91
2019-05-18T21:34:33.400Z,99834.69
2019-05-18T21:36:57.870Z,99836.09
2019-05-18T21:39:22.325Z,99837.38
2019-05-18T21:41:46.884Z,99837.61
2019-05-18T21:44:11.396Z,99835.95
2019-05-18T21:46:38.964Z,99830.92
2019-05-18T21:49:02.109Z,99843.20
2019-05-18T21:51:26.544Z,99839.13
2019-05-18T21:53:51.056Z,99836.69
2019-05-18T21:56:15.516Z,99838.16
2019-05-18T21:58:40.095Z,99841.16
2019-05-18T22:01:05.543Z,99840.45
2019-05-18T22:03:30.075Z,99840.55
2019-05-18T22:05:54.532Z,99845.66
2019-05-18T22:08:19.085Z,99847.56
2019-05-18T22:10:43.601Z,99840.16
2019-05-18T22:13:08.170Z,99839.70
2019-05-18T22:15:32.579Z,99837.90
2019-05-18T22:18:02.891Z,99841.70
2019-05-18T22:20:27.356Z,99845.35
2019-05-18T22:22:51.825Z,99845.74
2019-05-18T22:25:16.296Z,99840.75
2019-05-18T22:27:40.769Z,99836.88
2019-05-18T22:30:05.956Z,99837.09
2019-05-18T22:32:30.480Z,99839.22
2019-05-18T22:34:54.988Z,99838.20
2019-05-18T22:37:19.534Z,99835.95
2019-05-18T22:39:43.973Z,99833.81
2019-05-18T22:42:08.454Z,99824.11
2019-05-18T22:44:32.874Z,99829.50
2019-05-18T22:46:57.435Z,99821.67
2019-05-18T22:49:21.867Z,99831.28
2019-05-18T22:51:46.378Z,99829.95
2019-05-18T22:54:10.839Z,99832.37
2019-05-18T22:56:35.375Z,99829.40
2019-05-18T22:58:59.997Z,99828.21
2019-05-18T23:01:24.510Z,99821.56
2019-05-18T23:03:51.663Z,99821.91
2019-05-18T23:06:16.620Z,99827.90
2019-05-18T23:08:41.082Z,99818.39
2019-05-18T23:11:05.593Z,99821.66
2019-05-18T23:13:30.196Z,99825.09
2019-05-18T23:15:54.660Z,99817.50
2019-05-18T23:18:19.192Z,99822.44
2019-05-18T23:20:43.622Z,99823.49
2019-05-18T23:23:08.093Z,99824.30
2019-05-18T23:25:32.537Z,99822.78
2019-05-18T23:27:57.004Z,99820.30
2019-05-18T23:30:21.594Z,99818.41
2019-05-18T23:32:46.053Z,99773.94
2019-05-18T23:35:10.636Z,99813.16
2019-05-18T23:37:35.092Z,99810.88
2019-05-18T23:39:59.616Z,99809.27
2019-05-18T23:42:24.063Z,99802.45
2019-05-18T23:44:49.395Z,99799.30
2019-05-18T23:47:13.848Z,99798.00
2019-05-18T23:49:38.365Z,99798.56
2019-05-18T23:52:02.821Z,99799.67
2019-05-18T23:54:27.306Z,99796.50
2019-05-18T23:56:51.758Z,99798.13
2019-05-18T23:59:16.222Z,99799.03
